sensor_id;sensor_type;location;lat;lon;timestamp;temperature;humidity
14771;DHT22;7477;45.222;5.688;2023-02-20T00:02:00;10.50;99.90
14771;DHT22;7477;45.222;5.688;2023-02-20T00:05:20;10.50;99.90
14771;DHT22;7477;45.222;5.688;2023-02-20T00:08:39;10.50;99.90
14771;DHT22;7477;45.222;5.688;2023-02-20T00:11:59;10.50;99.90
14771;DHT22;7477;45.222;5.688;2023-02-20T00:15:19;10.50;99.90
14771;DHT22;7477;45.222;5.688;2023-02-20T00:18:38;10.50;99.90
14771;DHT22;7477;45.222;5.688;2023-02-20T00:21:58;10.40;99.90
14771;DHT22;7477;45.222;5.688;2023-02-20T00:25:19;10.30;99.90
14771;DHT22;7477;45.222;5.688;2023-02-20T00:28:39;10.30;99.90
14771;DHT22;7477;45.222;5.688;2023-02-20T00:31:59;10.20;99.90
14771;DHT22;7477;45.222;5.688;2023-02-20T00:35:21;10.20;99.90
14771;DHT22;7477;45.222;5.688;2023-02-20T00:38:42;10.20;99.90
14771;DHT22;7477;45.222;5.688;2023-02-20T00:42:02;10.20;99.90
14771;DHT22;7477;45.222;5.688;2023-02-20T00:45:22;10.20;99.90
14771;DHT22;7477;45.222;5.688;2023-02-20T00:48:41;10.20;99.90
14771;DHT22;7477;45.222;5.688;2023-02-20T00:52:00;10.20;99.90
14771;DHT22;7477;45.222;5.688;2023-02-20T00:55:20;10.20;99.90
14771;DHT22;7477;45.222;5.688;2023-02-20T00:58:39;10.20;99.90
14771;DHT22;7477;45.222;5.688;2023-02-20T01:01:59;10.30;99.90
14771;DHT22;7477;45.222;5.688;2023-02-20T01:05:18;10.30;99.90
14771;DHT22;7477;45.222;5.688;2023-02-20T01:08:38;10.30;99.90
14771;DHT22;7477;45.222;5.688;2023-02-20T01:11:58;10.30;99.90
14771;DHT22;7477;45.222;5.688;2023-02-20T01:15:17;10.30;99.90
14771;DHT22;7477;45.222;5.688;2023-02-20T01:18:36;10.30;99.90
14771;DHT22;7477;45.222;5.688;2023-02-20T01:21:55;10.20;99.90
14771;DHT22;7477;45.222;5.688;2023-02-20T01:25:14;10.20;99.90
14771;DHT22;7477;45.222;5.688;2023-02-20T01:28:33;10.20;99.90
14771;DHT22;7477;45.222;5.688;2023-02-20T01:31:53;10.20;99.90
14771;DHT22;7477;45.222;5.688;2023-02-20T01:35:14;10.30;99.90
14771;DHT22;7477;45.222;5.688;2023-02-20T01:38:33;10.30;99.90
14771;DHT22;7477;45.222;5.688;2023-02-20T01:42:00;10.30;99.90
14771;DHT22;7477;45.222;5.688;2023-02-20T01:48:42;10.30;99.90
14771;DHT22;7477;45.222;5.688;2023-02-20T01:59:08;10.20;99.90
14771;DHT22;7477;45.222;5.688;2023-02-20T02:02:30;10.20;99.90
14771;DHT22;7477;45.222;5.688;2023-02-20T02:05:54;10.30;99.90
14771;DHT22;7477;45.222;5.688;2023-02-20T02:12:51;10.30;99.90
14771;DHT22;7477;45.222;5.688;2023-02-20T02:27:08;10.30;99.90
14771;DHT22;7477;45.222;5.688;2023-02-20T02:30:43;10.20;99.90
14771;DHT22;7477;45.222;5.688;2023-02-20T02:45:46;10.10;99.90
14771;DHT22;7477;45.222;5.688;2023-02-20T02:49:43;10.10;99.90
14771;DHT22;7477;45.222;5.688;2023-02-20T02:53:07;10.10;99.90
14771;DHT22;7477;45.222;5.688;2023-02-20T02:56:36;10.10;99.90
14771;DHT22;7477;45.222;5.688;2023-02-20T03:03:25;10.10;99.90
14771;DHT22;7477;45.222;5.688;2023-02-20T03:06:47;10.10;99.90
14771;DHT22;7477;45.222;5.688;2023-02-20T03:10:10;10.10;99.90
14771;DHT22;7477;45.222;5.688;2023-02-20T03:17:35;10.00;99.90
14771;DHT22;7477;45.222;5.688;2023-02-20T03:21:02;10.00;99.90
14771;DHT22;7477;45.222;5.688;2023-02-20T03:24:25;10.10;99.90
14771;DHT22;7477;45.222;5.688;2023-02-20T03:28:00;10.10;99.90
14771;DHT22;7477;45.222;5.688;2023-02-20T03:31:36;10.10;99.90
14771;DHT22;7477;45.222;5.688;2023-02-20T03:34:59;10.00;99.90
14771;DHT22;7477;45.222;5.688;2023-02-20T03:38:40;10.00;99.90
14771;DHT22;7477;45.222;5.688;2023-02-20T03:42:20;10.10;99.90
14771;DHT22;7477;45.222;5.688;2023-02-20T03:46:02;10.00;99.90
14771;DHT22;7477;45.222;5.688;2023-02-20T03:49:28;10.00;99.90
14771;DHT22;7477;45.222;5.688;2023-02-20T03:53:09;10.00;99.90
14771;DHT22;7477;45.222;5.688;2023-02-20T03:56:32;10.00;99.90
14771;DHT22;7477;45.222;5.688;2023-02-20T04:00:03;10.00;99.90
14771;DHT22;7477;45.222;5.688;2023-02-20T04:03:28;10.00;99.90
14771;DHT22;7477;45.222;5.688;2023-02-20T04:06:50;10.00;99.90
14771;DHT22;7477;45.222;5.688;2023-02-20T04:10:14;10.00;99.90
14771;DHT22;7477;45.222;5.688;2023-02-20T04:13:37;10.00;99.90
14771;DHT22;7477;45.222;5.688;2023-02-20T04:17:01;10.00;99.90
14771;DHT22;7477;45.222;5.688;2023-02-20T04:20:21;10.00;99.90
14771;DHT22;7477;45.222;5.688;2023-02-20T04:23:44;10.00;99.90
14771;DHT22;7477;45.222;5.688;2023-02-20T04:27:04;9.90;99.90
14771;DHT22;7477;45.222;5.688;2023-02-20T04:30:24;9.90;99.90
14771;DHT22;7477;45.222;5.688;2023-02-20T04:33:43;9.90;99.90
14771;DHT22;7477;45.222;5.688;2023-02-20T04:37:14;9.80;99.90
14771;DHT22;7477;45.222;5.688;2023-02-20T04:40:34;9.80;99.90
14771;DHT22;7477;45.222;5.688;2023-02-20T04:43:53;9.70;99.90
14771;DHT22;7477;45.222;5.688;2023-02-20T04:47:31;9.70;99.90
14771;DHT22;7477;45.222;5.688;2023-02-20T04:50:51;9.60;99.90
14771;DHT22;7477;45.222;5.688;2023-02-20T04:54:11;9.60;99.90
14771;DHT22;7477;45.222;5.688;2023-02-20T04:57:30;9.50;99.90
14771;DHT22;7477;45.222;5.688;2023-02-20T05:00:49;9.40;99.90
14771;DHT22;7477;45.222;5.688;2023-02-20T05:04:08;9.40;99.90
14771;DHT22;7477;45.222;5.688;2023-02-20T05:07:28;9.40;99.90
14771;DHT22;7477;45.222;5.688;2023-02-20T05:10:47;9.30;99.90
14771;DHT22;7477;45.222;5.688;2023-02-20T05:14:06;9.30;99.90
14771;DHT22;7477;45.222;5.688;2023-02-20T05:17:25;9.30;99.90
14771;DHT22;7477;45.222;5.688;2023-02-20T05:20:44;9.30;99.90
14771;DHT22;7477;45.222;5.688;2023-02-20T05:24:23;9.30;99.90
14771;DHT22;7477;45.222;5.688;2023-02-20T05:27:42;9.30;99.90
14771;DHT22;7477;45.222;5.688;2023-02-20T05:31:01;9.30;99.90
14771;DHT22;7477;45.222;5.688;2023-02-20T05:34:21;9.30;99.90
14771;DHT22;7477;45.222;5.688;2023-02-20T05:37:43;9.20;99.90
14771;DHT22;7477;45.222;5.688;2023-02-20T05:41:03;9.20;99.90
14771;DHT22;7477;45.222;5.688;2023-02-20T05:44:22;9.20;99.90
14771;DHT22;7477;45.222;5.688;2023-02-20T05:47:41;9.20;99.90
14771;DHT22;7477;45.222;5.688;2023-02-20T05:51:01;9.20;99.90
14771;DHT22;7477;45.222;5.688;2023-02-20T05:54:20;9.20;99.90
14771;DHT22;7477;45.222;5.688;2023-02-20T05:57:40;9.20;99.90
14771;DHT22;7477;45.222;5.688;2023-02-20T06:00:59;9.20;99.90
14771;DHT22;7477;45.222;5.688;2023-02-20T06:04:18;9.20;99.90
14771;DHT22;7477;45.222;5.688;2023-02-20T06:07:37;9.10;99.90
14771;DHT22;7477;45.222;5.688;2023-02-20T06:10:56;9.10;99.90
14771;DHT22;7477;45.222;5.688;2023-02-20T06:14:16;9.10;99.90
14771;DHT22;7477;45.222;5.688;2023-02-20T06:17:37;9.10;99.90
14771;DHT22;7477;45.222;5.688;2023-02-20T06:20:56;9.20;99.90
14771;DHT22;7477;45.222;5.688;2023-02-20T06:24:16;9.10;99.90
14771;DHT22;7477;45.222;5.688;2023-02-20T06:27:38;9.10;99.90
14771;DHT22;7477;45.222;5.688;2023-02-20T06:30:57;9.00;99.90
14771;DHT22;7477;45.222;5.688;2023-02-20T06:34:17;9.00;99.90
14771;DHT22;7477;45.222;5.688;2023-02-20T06:37:36;8.90;99.90
14771;DHT22;7477;45.222;5.688;2023-02-20T06:40:55;8.80;99.90
14771;DHT22;7477;45.222;5.688;2023-02-20T06:44:15;8.90;99.90
14771;DHT22;7477;45.222;5.688;2023-02-20T06:47:34;8.80;99.90
14771;DHT22;7477;45.222;5.688;2023-02-20T06:50:53;8.80;99.90
14771;DHT22;7477;45.222;5.688;2023-02-20T06:54:14;8.80;99.90
14771;DHT22;7477;45.222;5.688;2023-02-20T06:57:33;8.80;99.90
14771;DHT22;7477;45.222;5.688;2023-02-20T07:00:52;8.70;99.90
14771;DHT22;7477;45.222;5.688;2023-02-20T07:04:18;8.70;99.90
14771;DHT22;7477;45.222;5.688;2023-02-20T07:07:38;8.70;99.90
14771;DHT22;7477;45.222;5.688;2023-02-20T07:10:57;8.70;99.90
14771;DHT22;7477;45.222;5.688;2023-02-20T07:14:16;8.70;99.90
14771;DHT22;7477;45.222;5.688;2023-02-20T07:17:36;8.70;99.90
14771;DHT22;7477;45.222;5.688;2023-02-20T07:20:55;8.70;99.90
14771;DHT22;7477;45.222;5.688;2023-02-20T07:24:14;8.80;99.90
14771;DHT22;7477;45.222;5.688;2023-02-20T07:27:34;8.80;99.90
14771;DHT22;7477;45.222;5.688;2023-02-20T07:30:53;8.70;99.90
14771;DHT22;7477;45.222;5.688;2023-02-20T07:34:12;8.70;99.90
14771;DHT22;7477;45.222;5.688;2023-02-20T07:37:31;8.70;99.90
14771;DHT22;7477;45.222;5.688;2023-02-20T07:40:51;8.70;99.90
14771;DHT22;7477;45.222;5.688;2023-02-20T07:44:11;8.70;99.90
14771;DHT22;7477;45.222;5.688;2023-02-20T07:47:32;8.70;99.90
14771;DHT22;7477;45.222;5.688;2023-02-20T07:50:51;8.70;99.90
14771;DHT22;7477;45.222;5.688;2023-02-20T07:54:10;8.80;99.90
14771;DHT22;7477;45.222;5.688;2023-02-20T07:57:32;8.80;99.90
14771;DHT22;7477;45.222;5.688;2023-02-20T08:00:51;8.80;99.90
14771;DHT22;7477;45.222;5.688;2023-02-20T08:04:12;8.90;99.90
14771;DHT22;7477;45.222;5.688;2023-02-20T08:07:31;8.90;99.90
14771;DHT22;7477;45.222;5.688;2023-02-20T08:10:51;8.90;99.90
14771;DHT22;7477;45.222;5.688;2023-02-20T08:14:13;9.00;99.90
14771;DHT22;7477;45.222;5.688;2023-02-20T08:17:32;9.00;99.90
14771;DHT22;7477;45.222;5.688;2023-02-20T08:20:51;9.10;99.90
14771;DHT22;7477;45.222;5.688;2023-02-20T08:24:11;9.10;99.90
14771;DHT22;7477;45.222;5.688;2023-02-20T08:27:31;9.10;99.90
14771;DHT22;7477;45.222;5.688;2023-02-20T08:30:51;9.10;99.90
14771;DHT22;7477;45.222;5.688;2023-02-20T08:34:10;9.10;99.90
14771;DHT22;7477;45.222;5.688;2023-02-20T08:37:29;9.10;99.90
14771;DHT22;7477;45.222;5.688;2023-02-20T08:40:48;9.10;99.90
14771;DHT22;7477;45.222;5.688;2023-02-20T08:44:07;9.10;99.90
14771;DHT22;7477;45.222;5.688;2023-02-20T08:47:26;9.20;99.90
14771;DHT22;7477;45.222;5.688;2023-02-20T08:50:46;9.20;99.90
14771;DHT22;7477;45.222;5.688;2023-02-20T08:54:05;9.30;99.90
14771;DHT22;7477;45.222;5.688;2023-02-20T08:57:25;9.50;99.90
14771;DHT22;7477;45.222;5.688;2023-02-20T09:00:44;9.80;99.90
14771;DHT22;7477;45.222;5.688;2023-02-20T09:04:03;9.70;99.90
14771;DHT22;7477;45.222;5.688;2023-02-20T09:07:23;10.40;99.90
14771;DHT22;7477;45.222;5.688;2023-02-20T09:10:43;11.60;99.90
14771;DHT22;7477;45.222;5.688;2023-02-20T09:14:02;10.40;99.90
14771;DHT22;7477;45.222;5.688;2023-02-20T09:17:22;10.00;99.90
14771;DHT22;7477;45.222;5.688;2023-02-20T09:20:41;9.90;99.90
14771;DHT22;7477;45.222;5.688;2023-02-20T09:24:01;9.80;99.90
14771;DHT22;7477;45.222;5.688;2023-02-20T09:27:20;9.80;99.90
14771;DHT22;7477;45.222;5.688;2023-02-20T09:30:40;9.80;99.90
14771;DHT22;7477;45.222;5.688;2023-02-20T09:33:59;9.90;99.90
14771;DHT22;7477;45.222;5.688;2023-02-20T09:37:18;9.90;99.90
14771;DHT22;7477;45.222;5.688;2023-02-20T09:40:38;10.20;99.90
14771;DHT22;7477;45.222;5.688;2023-02-20T09:44:11;10.10;99.90
14771;DHT22;7477;45.222;5.688;2023-02-20T09:50:58;10.20;99.90
14771;DHT22;7477;45.222;5.688;2023-02-20T09:57:48;10.30;99.90
14771;DHT22;7477;45.222;5.688;2023-02-20T10:01:15;10.40;99.90
14771;DHT22;7477;45.222;5.688;2023-02-20T10:04:42;10.40;99.90
14771;DHT22;7477;45.222;5.688;2023-02-20T10:08:02;10.40;99.90
14771;DHT22;7477;45.222;5.688;2023-02-20T10:22:25;10.60;99.90
14771;DHT22;7477;45.222;5.688;2023-02-20T10:25:51;10.70;99.90
14771;DHT22;7477;45.222;5.688;2023-02-20T10:29:22;10.80;99.90
14771;DHT22;7477;45.222;5.688;2023-02-20T10:32:48;10.80;99.90
14771;DHT22;7477;45.222;5.688;2023-02-20T10:39:47;10.90;99.90
14771;DHT22;7477;45.222;5.688;2023-02-20T10:43:43;11.00;99.90
14771;DHT22;7477;45.222;5.688;2023-02-20T10:54:07;11.00;99.90
14771;DHT22;7477;45.222;5.688;2023-02-20T10:57:57;11.20;99.90
14771;DHT22;7477;45.222;5.688;2023-02-20T11:01:20;11.60;99.90
14771;DHT22;7477;45.222;5.688;2023-02-20T11:04:41;11.30;99.90
14771;DHT22;7477;45.222;5.688;2023-02-20T11:08:04;11.30;99.90
14771;DHT22;7477;45.222;5.688;2023-02-20T11:11:32;11.30;99.90
14771;DHT22;7477;45.222;5.688;2023-02-20T11:14:55;11.40;99.90
14771;DHT22;7477;45.222;5.688;2023-02-20T11:18:45;11.40;99.90
14771;DHT22;7477;45.222;5.688;2023-02-20T11:22:04;12.70;99.90
14771;DHT22;7477;45.222;5.688;2023-02-20T11:25:29;11.90;99.90
14771;DHT22;7477;45.222;5.688;2023-02-20T11:35:45;11.70;99.90
14771;DHT22;7477;45.222;5.688;2023-02-20T11:39:21;11.60;99.90
14771;DHT22;7477;45.222;5.688;2023-02-20T11:42:42;11.60;99.90
14771;DHT22;7477;45.222;5.688;2023-02-20T11:46:15;11.70;99.90
14771;DHT22;7477;45.222;5.688;2023-02-20T11:49:35;11.70;99.90
14771;DHT22;7477;45.222;5.688;2023-02-20T11:53:03;11.70;99.90
14771;DHT22;7477;45.222;5.688;2023-02-20T11:56:23;11.80;99.90
14771;DHT22;7477;45.222;5.688;2023-02-20T11:59:47;11.90;99.90
14771;DHT22;7477;45.222;5.688;2023-02-20T12:03:13;11.90;99.90
14771;DHT22;7477;45.222;5.688;2023-02-20T12:06:41;12.00;99.90
14771;DHT22;7477;45.222;5.688;2023-02-20T12:10:32;12.00;99.90
14771;DHT22;7477;45.222;5.688;2023-02-20T12:13:55;12.10;99.90
14771;DHT22;7477;45.222;5.688;2023-02-20T12:20:56;12.30;99.90
14771;DHT22;7477;45.222;5.688;2023-02-20T12:28:19;12.40;99.90
14771;DHT22;7477;45.222;5.688;2023-02-20T12:35:35;12.30;99.90
14771;DHT22;7477;45.222;5.688;2023-02-20T12:42:35;12.60;99.90
14771;DHT22;7477;45.222;5.688;2023-02-20T12:46:08;12.70;99.90
14771;DHT22;7477;45.222;5.688;2023-02-20T12:57:28;12.90;99.90
14771;DHT22;7477;45.222;5.688;2023-02-20T13:00:54;12.80;99.90
14771;DHT22;7477;45.222;5.688;2023-02-20T13:04:27;12.70;99.90
14771;DHT22;7477;45.222;5.688;2023-02-20T13:07:53;12.50;99.90
14771;DHT22;7477;45.222;5.688;2023-02-20T13:11:18;12.50;99.90
14771;DHT22;7477;45.222;5.688;2023-02-20T13:18:50;13.30;99.90
14771;DHT22;7477;45.222;5.688;2023-02-20T13:22:12;13.40;99.90
14771;DHT22;7477;45.222;5.688;2023-02-20T13:28:53;13.50;99.90
14771;DHT22;7477;45.222;5.688;2023-02-20T13:42:38;13.80;99.90
14771;DHT22;7477;45.222;5.688;2023-02-20T13:53:05;13.90;99.80
14771;DHT22;7477;45.222;5.688;2023-02-20T13:56:28;14.00;99.90
14771;DHT22;7477;45.222;5.688;2023-02-20T13:59:51;14.00;99.90
14771;DHT22;7477;45.222;5.688;2023-02-20T14:03:27;14.10;99.50
14771;DHT22;7477;45.222;5.688;2023-02-20T14:06:54;14.10;99.40
14771;DHT22;7477;45.222;5.688;2023-02-20T14:10:35;14.20;99.20
14771;DHT22;7477;45.222;5.688;2023-02-20T14:13:55;14.00;99.90
14771;DHT22;7477;45.222;5.688;2023-02-20T14:17:18;14.10;99.40
14771;DHT22;7477;45.222;5.688;2023-02-20T14:20:38;14.20;99.10
14771;DHT22;7477;45.222;5.688;2023-02-20T14:24:21;14.20;98.90
14771;DHT22;7477;45.222;5.688;2023-02-20T14:27:40;14.20;99.10
14771;DHT22;7477;45.222;5.688;2023-02-20T14:31:09;14.20;98.90
14771;DHT22;7477;45.222;5.688;2023-02-20T14:42:29;14.30;98.70
14771;DHT22;7477;45.222;5.688;2023-02-20T14:46:17;14.40;98.30
14771;DHT22;7477;45.222;5.688;2023-02-20T14:49:38;14.60;97.70
14771;DHT22;7477;45.222;5.688;2023-02-20T14:53:16;14.70;97.70
14771;DHT22;7477;45.222;5.688;2023-02-20T14:56:35;14.80;97.50
14771;DHT22;7477;45.222;5.688;2023-02-20T15:03:29;14.90;97.10
14771;DHT22;7477;45.222;5.688;2023-02-20T15:06:51;14.90;97.00
14771;DHT22;7477;45.222;5.688;2023-02-20T15:10:37;15.00;97.10
14771;DHT22;7477;45.222;5.688;2023-02-20T15:13:58;15.10;96.80
14771;DHT22;7477;45.222;5.688;2023-02-20T15:17:23;15.00;96.70
14771;DHT22;7477;45.222;5.688;2023-02-20T15:20:46;15.10;96.40
14771;DHT22;7477;45.222;5.688;2023-02-20T15:24:41;15.20;96.60
14771;DHT22;7477;45.222;5.688;2023-02-20T15:31:23;15.30;95.90
14771;DHT22;7477;45.222;5.688;2023-02-20T15:34:43;15.30;96.20
14771;DHT22;7477;45.222;5.688;2023-02-20T15:38:07;15.40;96.30
14771;DHT22;7477;45.222;5.688;2023-02-20T15:41:27;15.30;96.00
14771;DHT22;7477;45.222;5.688;2023-02-20T15:44:47;15.20;96.10
14771;DHT22;7477;45.222;5.688;2023-02-20T15:48:06;15.30;95.90
14771;DHT22;7477;45.222;5.688;2023-02-20T15:51:26;15.40;95.80
14771;DHT22;7477;45.222;5.688;2023-02-20T15:54:51;15.50;95.60
14771;DHT22;7477;45.222;5.688;2023-02-20T15:58:24;15.40;95.40
14771;DHT22;7477;45.222;5.688;2023-02-20T16:01:44;15.20;95.50
14771;DHT22;7477;45.222;5.688;2023-02-20T16:05:04;14.90;95.70
14771;DHT22;7477;45.222;5.688;2023-02-20T16:08:25;14.70;95.80
14771;DHT22;7477;45.222;5.688;2023-02-20T16:11:46;14.60;95.90
14771;DHT22;7477;45.222;5.688;2023-02-20T16:15:06;14.40;96.10
14771;DHT22;7477;45.222;5.688;2023-02-20T16:18:26;14.30;96.20
14771;DHT22;7477;45.222;5.688;2023-02-20T16:21:46;14.20;96.70
14771;DHT22;7477;45.222;5.688;2023-02-20T16:25:05;14.10;96.50
14771;DHT22;7477;45.222;5.688;2023-02-20T16:28:25;14.00;96.50
14771;DHT22;7477;45.222;5.688;2023-02-20T16:35:13;13.90;97.10
14771;DHT22;7477;45.222;5.688;2023-02-20T16:38:33;13.80;97.30
14771;DHT22;7477;45.222;5.688;2023-02-20T16:41:54;13.80;97.40
14771;DHT22;7477;45.222;5.688;2023-02-20T16:45:16;13.70;97.40
14771;DHT22;7477;45.222;5.688;2023-02-20T16:48:36;13.60;97.50
14771;DHT22;7477;45.222;5.688;2023-02-20T16:51:55;13.60;97.60
14771;DHT22;7477;45.222;5.688;2023-02-20T16:55:25;13.50;97.90
14771;DHT22;7477;45.222;5.688;2023-02-20T16:58:44;13.50;97.80
14771;DHT22;7477;45.222;5.688;2023-02-20T17:02:04;13.40;98.00
14771;DHT22;7477;45.222;5.688;2023-02-20T17:05:26;13.40;98.10
14771;DHT22;7477;45.222;5.688;2023-02-20T17:08:46;13.40;98.30
14771;DHT22;7477;45.222;5.688;2023-02-20T17:12:05;13.30;98.30
14771;DHT22;7477;45.222;5.688;2023-02-20T17:15:25;13.20;98.40
14771;DHT22;7477;45.222;5.688;2023-02-20T17:18:44;13.20;98.40
14771;DHT22;7477;45.222;5.688;2023-02-20T17:22:04;13.20;98.60
14771;DHT22;7477;45.222;5.688;2023-02-20T17:25:24;13.10;98.60
14771;DHT22;7477;45.222;5.688;2023-02-20T17:28:44;13.00;98.60
14771;DHT22;7477;45.222;5.688;2023-02-20T17:32:03;13.00;98.70
14771;DHT22;7477;45.222;5.688;2023-02-20T17:35:23;12.80;99.00
14771;DHT22;7477;45.222;5.688;2023-02-20T17:38:42;12.70;99.40
14771;DHT22;7477;45.222;5.688;2023-02-20T17:42:02;12.70;99.80
14771;DHT22;7477;45.222;5.688;2023-02-20T17:45:22;12.60;99.90
14771;DHT22;7477;45.222;5.688;2023-02-20T17:48:42;12.50;99.90
14771;DHT22;7477;45.222;5.688;2023-02-20T17:52:01;12.40;99.90
14771;DHT22;7477;45.222;5.688;2023-02-20T17:55:24;12.40;99.90
14771;DHT22;7477;45.222;5.688;2023-02-20T17:58:44;12.30;99.90
14771;DHT22;7477;45.222;5.688;2023-02-20T18:02:05;12.20;99.90
14771;DHT22;7477;45.222;5.688;2023-02-20T18:05:25;12.20;99.90
14771;DHT22;7477;45.222;5.688;2023-02-20T18:08:48;12.10;99.90
14771;DHT22;7477;45.222;5.688;2023-02-20T18:12:11;12.10;99.90
14771;DHT22;7477;45.222;5.688;2023-02-20T18:15:34;12.00;99.90
14771;DHT22;7477;45.222;5.688;2023-02-20T18:18:54;12.00;99.90
14771;DHT22;7477;45.222;5.688;2023-02-20T18:22:14;11.90;99.90
14771;DHT22;7477;45.222;5.688;2023-02-20T18:25:33;11.90;99.90
14771;DHT22;7477;45.222;5.688;2023-02-20T18:28:53;11.90;99.90
14771;DHT22;7477;45.222;5.688;2023-02-20T18:32:12;11.80;99.90
14771;DHT22;7477;45.222;5.688;2023-02-20T18:35:31;11.80;99.90
14771;DHT22;7477;45.222;5.688;2023-02-20T18:38:50;11.70;99.90
14771;DHT22;7477;45.222;5.688;2023-02-20T18:42:10;11.60;99.90
14771;DHT22;7477;45.222;5.688;2023-02-20T18:45:29;11.60;99.90
14771;DHT22;7477;45.222;5.688;2023-02-20T18:48:49;11.50;99.90
14771;DHT22;7477;45.222;5.688;2023-02-20T18:52:08;11.50;99.90
14771;DHT22;7477;45.222;5.688;2023-02-20T18:55:28;11.50;99.90
14771;DHT22;7477;45.222;5.688;2023-02-20T18:58:47;11.40;99.90
14771;DHT22;7477;45.222;5.688;2023-02-20T19:02:08;11.40;99.90
14771;DHT22;7477;45.222;5.688;2023-02-20T19:05:29;11.40;99.90
14771;DHT22;7477;45.222;5.688;2023-02-20T19:08:48;11.30;99.90
14771;DHT22;7477;45.222;5.688;2023-02-20T19:12:07;11.20;99.90
14771;DHT22;7477;45.222;5.688;2023-02-20T19:15:26;11.20;99.90
14771;DHT22;7477;45.222;5.688;2023-02-20T19:18:46;11.10;99.90
14771;DHT22;7477;45.222;5.688;2023-02-20T19:22:05;11.00;99.90
14771;DHT22;7477;45.222;5.688;2023-02-20T19:25:25;10.90;99.90
14771;DHT22;7477;45.222;5.688;2023-02-20T19:28:44;10.90;99.90
14771;DHT22;7477;45.222;5.688;2023-02-20T19:32:04;10.80;99.90
14771;DHT22;7477;45.222;5.688;2023-02-20T19:35:23;10.70;99.90
14771;DHT22;7477;45.222;5.688;2023-02-20T19:38:43;10.70;99.90
14771;DHT22;7477;45.222;5.688;2023-02-20T19:42:02;10.60;99.90
14771;DHT22;7477;45.222;5.688;2023-02-20T19:45:22;10.60;99.90
14771;DHT22;7477;45.222;5.688;2023-02-20T19:48:41;10.50;99.90
14771;DHT22;7477;45.222;5.688;2023-02-20T19:52:03;10.50;99.90
14771;DHT22;7477;45.222;5.688;2023-02-20T19:55:22;10.40;99.90
14771;DHT22;7477;45.222;5.688;2023-02-20T19:58:42;10.40;99.90
14771;DHT22;7477;45.222;5.688;2023-02-20T20:02:02;10.30;99.90
14771;DHT22;7477;45.222;5.688;2023-02-20T20:05:21;10.30;99.90
14771;DHT22;7477;45.222;5.688;2023-02-20T20:08:41;10.20;99.90
14771;DHT22;7477;45.222;5.688;2023-02-20T20:12:01;10.20;99.90
14771;DHT22;7477;45.222;5.688;2023-02-20T20:15:22;10.20;99.90
14771;DHT22;7477;45.222;5.688;2023-02-20T20:18:43;10.10;99.90
14771;DHT22;7477;45.222;5.688;2023-02-20T20:22:02;10.10;99.90
14771;DHT22;7477;45.222;5.688;2023-02-20T20:25:22;10.00;99.90
14771;DHT22;7477;45.222;5.688;2023-02-20T20:28:42;10.00;99.90
14771;DHT22;7477;45.222;5.688;2023-02-20T20:32:01;9.90;99.90
14771;DHT22;7477;45.222;5.688;2023-02-20T20:35:23;9.90;99.90
14771;DHT22;7477;45.222;5.688;2023-02-20T20:38:42;9.90;99.90
14771;DHT22;7477;45.222;5.688;2023-02-20T20:42:02;9.80;99.90
14771;DHT22;7477;45.222;5.688;2023-02-20T20:45:22;9.80;99.90
14771;DHT22;7477;45.222;5.688;2023-02-20T20:48:43;9.70;99.90
14771;DHT22;7477;45.222;5.688;2023-02-20T20:52:02;9.70;99.90
14771;DHT22;7477;45.222;5.688;2023-02-20T20:55:22;9.60;99.90
14771;DHT22;7477;45.222;5.688;2023-02-20T20:58:41;9.60;99.90
14771;DHT22;7477;45.222;5.688;2023-02-20T21:02:02;9.50;99.90
14771;DHT22;7477;45.222;5.688;2023-02-20T21:05:24;9.50;99.90
14771;DHT22;7477;45.222;5.688;2023-02-20T21:08:44;9.50;99.90
14771;DHT22;7477;45.222;5.688;2023-02-20T21:12:04;9.40;99.90
14771;DHT22;7477;45.222;5.688;2023-02-20T21:15:24;9.40;99.90
14771;DHT22;7477;45.222;5.688;2023-02-20T21:18:47;9.30;99.90
14771;DHT22;7477;45.222;5.688;2023-02-20T21:22:06;9.30;99.90
14771;DHT22;7477;45.222;5.688;2023-02-20T21:25:25;9.30;99.90
14771;DHT22;7477;45.222;5.688;2023-02-20T21:28:45;9.20;99.90
14771;DHT22;7477;45.222;5.688;2023-02-20T21:32:04;9.20;99.90
14771;DHT22;7477;45.222;5.688;2023-02-20T21:35:23;9.20;99.90
14771;DHT22;7477;45.222;5.688;2023-02-20T21:38:44;9.20;99.90
14771;DHT22;7477;45.222;5.688;2023-02-20T21:42:03;9.10;99.90
14771;DHT22;7477;45.222;5.688;2023-02-20T21:45:41;9.10;99.90
14771;DHT22;7477;45.222;5.688;2023-02-20T21:49:02;9.00;99.90
14771;DHT22;7477;45.222;5.688;2023-02-20T21:52:21;9.00;99.90
14771;DHT22;7477;45.222;5.688;2023-02-20T21:55:43;8.90;99.90
14771;DHT22;7477;45.222;5.688;2023-02-20T21:59:03;8.90;99.90
14771;DHT22;7477;45.222;5.688;2023-02-20T22:02:22;8.90;99.90
14771;DHT22;7477;45.222;5.688;2023-02-20T22:05:41;8.90;99.90
14771;DHT22;7477;45.222;5.688;2023-02-20T22:09:01;8.80;99.90
14771;DHT22;7477;45.222;5.688;2023-02-20T22:12:40;8.80;99.90
14771;DHT22;7477;45.222;5.688;2023-02-20T22:16:18;8.80;99.90
14771;DHT22;7477;45.222;5.688;2023-02-20T22:19:57;8.70;99.90
14771;DHT22;7477;45.222;5.688;2023-02-20T22:23:35;8.60;99.90
14771;DHT22;7477;45.222;5.688;2023-02-20T22:27:13;8.60;99.90
14771;DHT22;7477;45.222;5.688;2023-02-20T22:30:51;8.60;99.90
14771;DHT22;7477;45.222;5.688;2023-02-20T22:34:30;9.40;99.90
14771;DHT22;7477;45.222;5.688;2023-02-20T22:38:08;8.50;99.90
14771;DHT22;7477;45.222;5.688;2023-02-20T22:41:46;8.50;99.90
14771;DHT22;7477;45.222;5.688;2023-02-20T22:45:24;8.40;99.90
14771;DHT22;7477;45.222;5.688;2023-02-20T22:49:02;8.40;99.90
14771;DHT22;7477;45.222;5.688;2023-02-20T22:52:40;8.30;99.90
14771;DHT22;7477;45.222;5.688;2023-02-20T22:56:19;8.30;99.90
14771;DHT22;7477;45.222;5.688;2023-02-20T22:59:58;8.30;99.90
14771;DHT22;7477;45.222;5.688;2023-02-20T23:03:40;8.30;99.90
14771;DHT22;7477;45.222;5.688;2023-02-20T23:07:18;8.30;99.90
14771;DHT22;7477;45.222;5.688;2023-02-20T23:10:56;8.10;99.90
14771;DHT22;7477;45.222;5.688;2023-02-20T23:14:34;8.10;99.90
14771;DHT22;7477;45.222;5.688;2023-02-20T23:18:12;8.10;99.90
14771;DHT22;7477;45.222;5.688;2023-02-20T23:21:51;8.00;99.90
14771;DHT22;7477;45.222;5.688;2023-02-20T23:25:29;8.00;99.90
14771;DHT22;7477;45.222;5.688;2023-02-20T23:29:07;7.90;99.90
14771;DHT22;7477;45.222;5.688;2023-02-20T23:32:45;7.90;99.90
14771;DHT22;7477;45.222;5.688;2023-02-20T23:36:23;8.00;99.90
14771;DHT22;7477;45.222;5.688;2023-02-20T23:40:01;7.90;99.90
14771;DHT22;7477;45.222;5.688;2023-02-20T23:43:39;7.80;99.90
14771;DHT22;7477;45.222;5.688;2023-02-20T23:47:17;7.80;99.90
14771;DHT22;7477;45.222;5.688;2023-02-20T23:50:55;7.70;99.90
14771;DHT22;7477;45.222;5.688;2023-02-20T23:54:33;7.80;99.90
14771;DHT22;7477;45.222;5.688;2023-02-20T23:58:11;7.80;99.90
